createdAt,value
2019-05-09T00:00:07.644Z,78.40
2019-05-09T00:02:37.564Z,77.17
2019-05-09T00:05:07.826Z,77.46
2019-05-09T00:07:38.044Z,77.50
2019-05-09T00:10:07.983Z,77.65
2019-05-09T00:12:37.906Z,77.80
2019-05-09T00:15:08.200Z,77.68
2019-05-09T00:17:38.169Z,78.04
2019-05-09T00:20:08.047Z,78.62
2019-05-09T00:22:38.000Z,78.81
2019-05-09T00:25:07.949Z,78.77
2019-05-09T00:27:37.862Z,78.33
2019-05-09T00:30:07.797Z,77.95
2019-05-09T00:32:37.725Z,77.21
2019-05-09T00:35:07.670Z,77.52
2019-05-09T00:37:37.600Z,78.22
2019-05-09T00:40:07.556Z,78.56
2019-05-09T00:42:37.531Z,77.91
2019-05-09T00:45:07.471Z,77.82
2019-05-09T00:47:37.675Z,77.86
2019-05-09T00:50:07.926Z,77.65
2019-05-09T00:52:37.843Z,77.69
2019-05-09T00:55:07.841Z,77.94
2019-05-09T00:57:37.753Z,77.75
2019-05-09T01:00:07.688Z,77.16
2019-05-09T01:02:37.608Z,77.29
2019-05-09T01:05:07.545Z,77.83
2019-05-09T01:07:37.487Z,77.87
2019-05-09T01:10:07.416Z,78.46
2019-05-09T01:12:37.332Z,78.35
2019-05-09T01:15:07.551Z,78.52
2019-05-09T01:17:37.463Z,78.47
2019-05-09T01:20:07.404Z,77.88
2019-05-09T01:22:37.583Z,78.07
2019-05-09T01:25:07.526Z,78.11
2019-05-09T01:27:37.441Z,78.66
2019-05-09T01:30:07.747Z,79.01
2019-05-09T01:32:37.961Z,79.18
2019-05-09T01:35:07.926Z,79.19
2019-05-09T01:37:37.935Z,78.85
2019-05-09T01:40:08.447Z,79.33
2019-05-09T01:42:38.383Z,78.88
2019-05-09T01:45:08.305Z,78.86
2019-05-09T01:47:38.236Z,78.06
2019-05-09T01:50:08.477Z,76.85
2019-05-09T01:52:38.393Z,77.40
2019-05-09T01:55:08.338Z,77.96
2019-05-09T01:57:38.275Z,78.71
2019-05-09T02:00:08.535Z,78.64
2019-05-09T02:02:38.774Z,78.50
2019-05-09T02:05:08.701Z,77.48
2019-05-09T02:07:38.616Z,78.23
2019-05-09T02:10:08.561Z,78.62
2019-05-09T02:12:38.487Z,78.52
2019-05-09T02:15:08.415Z,79.11
2019-05-09T02:17:38.647Z,78.40
2019-05-09T02:20:08.605Z,79.48
2019-05-09T02:22:38.524Z,79.82
2019-05-09T02:27:47.521Z,79.94
2019-05-09T02:30:17.474Z,80.29
2019-05-09T02:32:47.658Z,80.65
2019-05-09T02:35:17.587Z,80.98
2019-05-09T02:37:49.847Z,80.96
2019-05-09T02:40:18.806Z,80.68
2019-05-09T02:42:48.981Z,80.84
2019-05-09T02:45:19.155Z,81.04
2019-05-09T02:47:49.048Z,80.93
2019-05-09T02:50:19.574Z,81.30
2019-05-09T02:52:48.649Z,80.94
2019-05-09T02:55:18.382Z,81.25
2019-05-09T02:57:48.917Z,81.30
2019-05-09T03:00:19.969Z,81.05
2019-05-09T03:02:48.726Z,81.18
2019-05-09T03:05:19.624Z,81.21
2019-05-09T03:07:48.656Z,81.19
2019-05-09T03:10:19.251Z,81.07
2019-05-09T03:12:50.069Z,81.42
2019-05-09T03:15:18.569Z,81.41
2019-05-09T03:17:49.482Z,81.24
2019-05-09T03:20:18.188Z,81.16
2019-05-09T03:22:48.651Z,81.10
2019-05-09T03:25:19.168Z,80.31
2019-05-09T03:27:48.408Z,80.69
2019-05-09T03:30:20.728Z,81.09
2019-05-09T03:32:49.007Z,81.05
2019-05-09T03:35:17.440Z,80.80
2019-05-09T03:37:48.101Z,80.40
2019-05-09T03:40:18.042Z,80.65
2019-05-09T03:42:48.660Z,80.78
2019-05-09T03:47:58.288Z,80.88
2019-05-09T03:50:27.946Z,80.77
2019-05-09T03:52:57.996Z,81.29
2019-05-09T03:55:28.191Z,81.40
2019-05-09T03:57:58.045Z,81.01
2019-05-09T04:00:28.349Z,80.67
2019-05-09T04:02:58.081Z,80.63
2019-05-09T04:05:27.398Z,80.12
2019-05-09T04:07:58.247Z,79.76
2019-05-09T04:10:28.187Z,79.70
2019-05-09T04:12:59.507Z,79.52
2019-05-09T04:18:08.254Z,79.45
2019-05-09T04:20:37.731Z,79.83
2019-05-09T04:23:07.960Z,79.96
2019-05-09T04:25:37.660Z,79.93
2019-05-09T04:28:07.528Z,79.79
2019-05-09T04:30:37.621Z,79.79
2019-05-09T04:33:07.841Z,80.23
2019-05-09T04:35:38.293Z,79.84
2019-05-09T04:38:07.989Z,79.92
2019-05-09T04:40:45.053Z,80.06
2019-05-09T04:43:14.250Z,79.50
2019-05-09T04:48:20.253Z,79.26
2019-05-09T04:50:47.865Z,79.50
2019-05-09T04:53:18.309Z,79.33
2019-05-09T04:55:47.941Z,79.24
2019-05-09T04:58:19.173Z,79.24
2019-05-09T05:00:48.001Z,78.23
2019-05-09T05:03:18.328Z,78.19
2019-05-09T05:05:48.167Z,77.96
2019-05-09T05:08:18.156Z,77.76
2019-05-09T05:10:47.767Z,77.28
2019-05-09T05:13:26.463Z,76.32
2019-05-09T05:15:47.516Z,75.81
2019-05-09T05:18:17.399Z,75.55
2019-05-09T05:20:48.159Z,74.56
2019-05-09T05:23:18.270Z,74.38
2019-05-09T05:25:47.660Z,73.89
2019-05-09T05:28:17.714Z,73.07
2019-05-09T05:30:47.752Z,74.20
2019-05-09T05:33:18.462Z,73.74
2019-05-09T05:35:48.062Z,73.45
2019-05-09T05:38:17.737Z,72.50
2019-05-09T05:40:49.735Z,72.67
2019-05-09T05:43:17.521Z,72.29
2019-05-09T05:45:47.985Z,72.28
2019-05-09T05:48:17.570Z,72.72
2019-05-09T05:53:27.775Z,72.59
2019-05-09T05:55:58.068Z,72.02
2019-05-09T05:58:28.168Z,71.91
2019-05-09T06:00:58.910Z,71.12
2019-05-09T06:06:08.857Z,69.29
2019-05-09T06:08:38.024Z,69.73
2019-05-09T06:11:11.891Z,69.01
2019-05-09T06:13:37.999Z,69.02
2019-05-09T06:16:08.556Z,67.29
2019-05-09T06:21:17.764Z,65.48
2019-05-09T06:23:48.105Z,66.43
2019-05-09T06:26:18.583Z,65.40
2019-05-09T06:31:28.292Z,65.24
2019-05-09T06:33:57.789Z,63.87
2019-05-09T06:36:28.232Z,63.63
2019-05-09T06:38:55.594Z,63.70
2019-05-09T06:44:14.329Z,61.93
2019-05-09T06:46:34.787Z,60.84
2019-05-09T06:49:23.316Z,60.52
2019-05-09T06:54:14.086Z,59.44
2019-05-09T06:56:44.266Z,59.85
2019-05-09T06:59:14.223Z,59.78
2019-05-09T07:01:44.521Z,59.46
2019-05-09T07:06:54.053Z,56.75
2019-05-09T07:09:23.977Z,57.99
2019-05-09T07:11:53.988Z,56.16
2019-05-09T07:14:28.965Z,57.93
2019-05-09T07:16:53.844Z,60.18
2019-05-09T07:19:24.127Z,62.45
2019-05-09T07:21:54.130Z,61.68
2019-05-09T07:24:23.965Z,61.29
2019-05-09T07:26:53.900Z,62.11
2019-05-09T07:29:23.825Z,61.26
2019-05-09T07:31:54.099Z,59.27
2019-05-09T07:34:24.035Z,57.58
2019-05-09T07:36:53.946Z,58.09
2019-05-09T07:39:23.872Z,58.22
2019-05-09T07:41:53.805Z,58.34
2019-05-09T07:44:23.735Z,55.68
2019-05-09T07:46:53.671Z,54.01
2019-05-09T07:49:23.614Z,54.09
2019-05-09T07:51:53.546Z,54.46
2019-05-09T07:54:25.721Z,55.59
2019-05-09T07:56:53.399Z,54.76
2019-05-09T07:59:23.655Z,54.21
2019-05-09T08:01:53.625Z,54.02
2019-05-09T08:07:02.883Z,52.85
2019-05-09T08:09:32.800Z,56.35
2019-05-09T08:12:02.727Z,56.25
2019-05-09T08:14:32.675Z,57.25
2019-05-09T08:17:02.890Z,57.80
2019-05-09T08:19:32.806Z,54.60
2019-05-09T08:22:02.762Z,55.77
2019-05-09T08:24:32.679Z,54.78
2019-05-09T08:27:02.648Z,54.08
2019-05-09T08:29:32.567Z,53.38
2019-05-09T08:32:02.501Z,54.12
2019-05-09T08:37:12.684Z,54.37
2019-05-09T08:39:42.342Z,55.04
2019-05-09T08:42:12.277Z,53.45
2019-05-09T08:44:42.260Z,52.70
2019-05-09T08:47:12.392Z,53.99
2019-05-09T08:49:42.326Z,53.59
2019-05-09T08:52:16.210Z,54.16
2019-05-09T08:54:42.537Z,54.02
2019-05-09T08:57:12.476Z,54.09
2019-05-09T08:59:42.408Z,52.31
2019-05-09T09:02:16.528Z,54.03
2019-05-09T09:07:21.618Z,52.15
2019-05-09T09:09:51.547Z,52.86
2019-05-09T09:12:30.462Z,51.12
2019-05-09T09:14:51.410Z,50.87
2019-05-09T09:17:21.349Z,50.81
2019-05-09T09:19:51.271Z,51.62
2019-05-09T09:22:21.215Z,51.08
2019-05-09T09:24:51.427Z,51.36
2019-05-09T09:27:21.370Z,52.81
2019-05-09T09:29:51.313Z,51.45
2019-05-09T09:32:21.248Z,51.22
2019-05-09T09:37:44.956Z,51.87
2019-05-09T09:40:00.459Z,52.29
2019-05-09T09:42:30.407Z,52.78
2019-05-09T09:45:00.665Z,52.15
2019-05-09T09:47:30.880Z,52.15
2019-05-09T09:50:00.807Z,53.10
2019-05-09T09:52:34.277Z,51.68
2019-05-09T09:55:00.943Z,51.08
2019-05-09T09:57:30.878Z,50.43
2019-05-09T10:00:00.800Z,50.86
2019-05-09T10:02:30.735Z,50.63
2019-05-09T10:07:40.340Z,52.13
2019-05-09T10:10:10.268Z,51.71
2019-05-09T10:12:44.473Z,50.65
2019-05-09T10:15:10.290Z,52.23
2019-05-09T10:17:40.241Z,52.16
2019-05-09T10:20:10.157Z,50.01
2019-05-09T10:22:46.461Z,51.06
2019-05-09T10:25:10.752Z,51.56
2019-05-09T10:27:40.694Z,52.09
2019-05-09T10:30:10.614Z,51.74
2019-05-09T10:32:40.528Z,51.53
2019-05-09T10:35:10.458Z,51.27
2019-05-09T10:37:40.734Z,50.32
2019-05-09T10:40:10.673Z,51.24
2019-05-09T10:42:40.613Z,51.92
2019-05-09T10:45:10.545Z,52.86
2019-05-09T10:47:40.789Z,52.90
2019-05-09T10:50:10.736Z,51.26
2019-05-09T10:52:40.671Z,48.66
2019-05-09T10:55:10.620Z,48.78
2019-05-09T10:57:42.512Z,46.50
2019-05-09T11:00:10.496Z,46.16
2019-05-09T11:02:40.407Z,47.28
2019-05-09T11:05:10.352Z,46.85
2019-05-09T11:07:40.275Z,47.66
2019-05-09T11:10:24.577Z,47.92
2019-05-09T11:12:40.426Z,48.24
2019-05-09T11:15:10.371Z,49.37
2019-05-09T11:17:40.560Z,48.80
2019-05-09T11:20:10.803Z,47.51
2019-05-09T11:22:41.049Z,49.14
2019-05-09T11:25:10.937Z,47.99
2019-05-09T11:27:41.133Z,47.48
2019-05-09T11:30:11.067Z,46.47
2019-05-09T11:32:40.996Z,47.38
2019-05-09T11:37:50.258Z,46.45
2019-05-09T11:40:20.530Z,45.53
2019-05-09T11:42:50.450Z,47.17
2019-05-09T11:45:20.386Z,45.53
2019-05-09T11:47:50.316Z,45.39
2019-05-09T11:50:23.247Z,45.90
2019-05-09T11:52:50.504Z,44.40
2019-05-09T11:55:29.855Z,45.86
2019-05-09T11:57:50.467Z,44.68
2019-05-09T12:00:20.422Z,45.19
2019-05-09T12:02:50.355Z,45.58
2019-05-09T12:05:20.283Z,44.07
2019-05-09T12:07:50.220Z,46.48
2019-05-09T12:10:20.513Z,47.00
2019-05-09T12:12:50.434Z,46.86
2019-05-09T12:15:20.379Z,47.24
2019-05-09T12:17:57.920Z,47.48
2019-05-09T12:20:20.232Z,46.64
2019-05-09T12:22:50.484Z,45.89
2019-05-09T12:25:20.738Z,46.30
2019-05-09T12:27:50.686Z,47.10
2019-05-09T12:30:20.602Z,47.66
2019-05-09T12:32:50.525Z,48.61
2019-05-09T12:35:20.778Z,50.62
2019-05-09T12:37:50.710Z,49.37
2019-05-09T12:40:20.664Z,48.13
2019-05-09T12:42:50.621Z,48.58
2019-05-09T12:45:20.519Z,48.24
2019-05-09T12:48:05.823Z,46.55
2019-05-09T12:50:20.389Z,46.73
2019-05-09T12:52:50.317Z,45.24
2019-05-09T12:55:20.288Z,46.86
2019-05-09T12:57:50.503Z,45.89
2019-05-09T13:00:20.467Z,45.95
2019-05-09T13:02:50.924Z,46.42
2019-05-09T13:05:20.965Z,45.70
2019-05-09T13:07:50.880Z,48.33
2019-05-09T13:10:21.100Z,48.08
2019-05-09T13:12:51.065Z,48.53
2019-05-09T13:15:21.350Z,48.93
2019-05-09T13:17:50.938Z,49.82
2019-05-09T13:20:20.886Z,47.75
2019-05-09T13:22:50.818Z,48.63
2019-05-09T13:25:20.756Z,47.00
2019-05-09T13:27:52.927Z,46.67
2019-05-09T13:30:20.940Z,48.19
2019-05-09T13:32:50.851Z,46.82
2019-05-09T13:35:20.817Z,46.18
2019-05-09T13:37:50.739Z,46.13
2019-05-09T13:40:20.675Z,46.56
2019-05-09T13:42:50.596Z,44.70
2019-05-09T13:45:20.800Z,47.35
2019-05-09T13:47:50.711Z,48.82
2019-05-09T13:50:20.652Z,47.80
2019-05-09T13:52:50.612Z,47.82
2019-05-09T13:55:20.541Z,47.57
2019-05-09T13:57:50.781Z,47.40
2019-05-09T14:00:20.728Z,47.81
2019-05-09T14:02:51.021Z,47.98
2019-05-09T14:05:20.949Z,49.38
2019-05-09T14:07:54.794Z,50.11
2019-05-09T14:10:20.851Z,50.96
2019-05-09T14:13:05.801Z,53.49
2019-05-09T14:15:20.692Z,54.59
2019-05-09T14:17:53.763Z,54.45
2019-05-09T14:20:20.915Z,56.44
2019-05-09T14:22:50.828Z,58.90
2019-05-09T14:25:20.792Z,61.57
2019-05-09T14:27:52.413Z,62.49
2019-05-09T14:30:21.001Z,64.67
2019-05-09T14:32:50.965Z,66.81
2019-05-09T14:35:21.216Z,66.77
2019-05-09T14:37:51.163Z,68.05
2019-05-09T14:40:21.101Z,67.69
2019-05-09T14:42:51.062Z,68.64
2019-05-09T14:45:20.966Z,68.53
2019-05-09T14:47:50.901Z,69.33
2019-05-09T14:50:20.850Z,68.88
2019-05-09T14:52:51.049Z,67.55
2019-05-09T14:55:20.973Z,67.96
2019-05-09T14:57:50.902Z,68.27
2019-05-09T15:00:20.830Z,69.18
2019-05-09T15:02:51.036Z,65.86
2019-05-09T15:05:20.970Z,65.02
2019-05-09T15:07:53.718Z,63.32
2019-05-09T15:10:20.868Z,64.75
2019-05-09T15:12:50.829Z,64.77
2019-05-09T15:15:20.736Z,65.27
2019-05-09T15:17:50.683Z,65.62
2019-05-09T15:20:20.681Z,64.56
2019-05-09T15:22:50.620Z,64.86
2019-05-09T15:25:21.032Z,65.11
2019-05-09T15:27:50.476Z,64.65
2019-05-09T15:32:59.768Z,61.80
2019-05-09T15:35:29.987Z,63.60
2019-05-09T15:37:59.938Z,64.29
2019-05-09T15:40:29.852Z,63.91
2019-05-09T15:42:59.788Z,63.92
2019-05-09T15:45:29.715Z,64.02
2019-05-09T15:47:59.751Z,62.68
2019-05-09T15:50:29.989Z,60.44
2019-05-09T15:53:00.196Z,60.86
2019-05-09T15:55:30.144Z,59.74
2019-05-09T15:58:00.089Z,61.33
2019-05-09T16:00:30.034Z,59.56
2019-05-09T16:02:59.960Z,59.38
2019-05-09T16:05:31.892Z,59.79
2019-05-09T16:07:59.918Z,58.65
2019-05-09T16:10:30.101Z,60.14
2019-05-09T16:13:00.273Z,59.47
2019-05-09T16:15:30.650Z,60.63
2019-05-09T16:18:00.584Z,59.41
2019-05-09T16:20:37.746Z,60.61
2019-05-09T16:23:00.443Z,60.22
2019-05-09T16:25:30.371Z,60.87
2019-05-09T16:28:00.296Z,60.01
2019-05-09T16:30:30.530Z,60.13
2019-05-09T16:33:00.473Z,61.29
2019-05-09T16:35:30.794Z,61.44
2019-05-09T16:38:06.433Z,61.68
2019-05-09T16:40:30.934Z,61.18
2019-05-09T16:43:00.890Z,61.66
2019-05-09T16:45:31.157Z,61.85
2019-05-09T16:48:01.116Z,61.67
2019-05-09T16:50:31.382Z,61.96
2019-05-09T16:53:01.587Z,61.49
2019-05-09T16:55:31.515Z,61.63
2019-05-09T16:58:01.447Z,63.00
2019-05-09T17:00:34.300Z,63.15
2019-05-09T17:03:04.230Z,63.10
2019-05-09T17:05:34.159Z,63.56
2019-05-09T17:08:04.104Z,63.60
2019-05-09T17:10:34.369Z,64.69
2019-05-09T17:13:04.590Z,63.98
2019-05-09T17:15:34.522Z,64.85
2019-05-09T17:18:04.824Z,65.17
2019-05-09T17:20:34.763Z,66.07
2019-05-09T17:23:11.474Z,66.59
2019-05-09T17:25:34.637Z,67.09
2019-05-09T17:30:44.230Z,67.38
2019-05-09T17:33:14.164Z,67.70
2019-05-09T17:35:44.349Z,68.26
2019-05-09T17:38:14.570Z,68.43
2019-05-09T17:40:44.501Z,68.49
2019-05-09T17:43:14.703Z,68.84
2019-05-09T17:45:44.655Z,69.26
2019-05-09T17:48:14.595Z,69.51
2019-05-09T17:50:44.521Z,69.88
2019-05-09T17:53:14.453Z,70.09
2019-05-09T17:55:44.406Z,70.56
2019-05-09T17:58:29.094Z,69.81
2019-05-09T18:00:44.609Z,70.83
2019-05-09T18:03:14.538Z,71.00
2019-05-09T18:05:44.762Z,71.55
2019-05-09T18:08:14.688Z,72.58
2019-05-09T18:10:44.635Z,73.18
2019-05-09T18:13:14.561Z,73.82
2019-05-09T18:15:44.810Z,74.70
2019-05-09T18:18:15.039Z,74.85
2019-05-09T18:20:44.996Z,75.25
2019-05-09T18:25:54.808Z,76.85
2019-05-09T18:28:24.934Z,76.56
2019-05-09T18:30:55.230Z,76.92
2019-05-09T18:33:25.150Z,77.08
2019-05-09T18:35:55.103Z,77.17
2019-05-09T18:41:10.371Z,77.67
2019-05-09T18:43:40.374Z,77.98
2019-05-09T18:46:10.318Z,77.60
2019-05-09T18:48:40.239Z,77.41
2019-05-09T18:53:49.522Z,77.97
2019-05-09T18:56:19.456Z,77.65
2019-05-09T18:58:49.381Z,77.67
2019-05-09T19:01:19.589Z,77.50
2019-05-09T19:03:49.527Z,77.34
2019-05-09T19:06:19.448Z,77.06
2019-05-09T19:08:49.385Z,76.97
2019-05-09T19:11:19.663Z,76.61
2019-05-09T19:13:49.894Z,75.98
2019-05-09T19:16:20.098Z,76.07
2019-05-09T19:18:50.338Z,76.07
2019-05-09T19:21:20.274Z,76.65
2019-05-09T19:23:50.453Z,76.37
2019-05-09T19:26:20.671Z,76.66
2019-05-09T19:28:50.594Z,76.56
2019-05-09T19:31:20.525Z,76.57
2019-05-09T19:33:50.440Z,76.30
2019-05-09T19:36:20.367Z,76.45
2019-05-09T19:41:29.654Z,76.27
2019-05-09T19:43:59.664Z,75.64
2019-05-09T19:46:29.928Z,76.13
2019-05-09T19:49:00.133Z,75.82
2019-05-09T19:51:30.096Z,76.61
2019-05-09T19:54:00.364Z,77.09
2019-05-09T19:56:30.336Z,76.94
2019-05-09T19:59:00.269Z,76.54
2019-05-09T20:01:30.286Z,76.89
2019-05-09T20:04:00.213Z,76.92
2019-05-09T20:06:30.157Z,77.17
2019-05-09T20:09:00.099Z,77.07
2019-05-09T20:11:33.124Z,77.02
2019-05-09T20:13:59.938Z,77.16
2019-05-09T20:16:29.871Z,76.99
2019-05-09T20:18:59.783Z,77.27
2019-05-09T20:21:29.720Z,76.51
2019-05-09T20:23:59.670Z,77.65
2019-05-09T20:26:29.870Z,78.19
2019-05-09T20:28:59.790Z,77.45
2019-05-09T20:31:29.748Z,77.19
2019-05-09T20:34:00.000Z,77.90
2019-05-09T20:36:29.940Z,77.58
2019-05-09T20:38:59.911Z,77.43
2019-05-09T20:41:29.838Z,77.45
2019-05-09T20:43:59.775Z,77.14
2019-05-09T20:46:29.977Z,77.68
2019-05-09T20:48:59.910Z,77.36
2019-05-09T20:51:29.848Z,77.42
2019-05-09T20:54:00.017Z,77.39
2019-05-09T20:56:30.245Z,77.20
2019-05-09T20:59:00.183Z,77.21
2019-05-09T21:01:30.139Z,77.68
2019-05-09T21:04:00.919Z,78.06
2019-05-09T21:06:30.002Z,77.69
2019-05-09T21:08:59.939Z,77.50
2019-05-09T21:11:29.871Z,78.29
2019-05-09T21:13:59.802Z,78.17
2019-05-09T21:16:29.735Z,77.94
2019-05-09T21:18:59.975Z,78.24
2019-05-09T21:21:29.919Z,78.17
2019-05-09T21:24:00.110Z,78.92
2019-05-09T21:26:30.041Z,79.09
2019-05-09T21:31:39.281Z,79.76
2019-05-09T21:34:09.205Z,79.48
2019-05-09T21:36:39.527Z,79.28
2019-05-09T21:39:09.446Z,79.70
2019-05-09T21:41:39.733Z,80.67
2019-05-09T21:44:09.653Z,80.57
2019-05-09T21:46:39.870Z,81.06
2019-05-09T21:49:09.791Z,81.29
2019-05-09T21:51:39.740Z,81.04
2019-05-09T21:54:09.640Z,81.01
2019-05-09T21:56:39.848Z,81.58
2019-05-09T21:59:09.774Z,81.57
2019-05-09T22:01:40.078Z,81.34
2019-05-09T22:04:10.014Z,81.54
2019-05-09T22:06:39.947Z,81.74
2019-05-09T22:11:49.863Z,81.70
2019-05-09T22:14:19.817Z,81.82
2019-05-09T22:16:49.733Z,81.24
2019-05-09T22:19:19.650Z,81.45
2019-05-09T22:21:49.938Z,81.58
2019-05-09T22:24:20.134Z,81.51
2019-05-09T22:26:50.070Z,81.77
2019-05-09T22:29:20.270Z,81.85
2019-05-09T22:31:50.194Z,82.19
2019-05-09T22:34:20.114Z,82.26
2019-05-09T22:36:50.076Z,81.97
2019-05-09T22:39:19.990Z,81.49
2019-05-09T22:41:49.933Z,81.53
2019-05-09T22:44:19.868Z,81.36
2019-05-09T22:46:49.799Z,81.23
2019-05-09T22:49:19.726Z,81.29
2019-05-09T22:51:50.014Z,80.86
2019-05-09T22:54:19.933Z,80.99
2019-05-09T22:56:49.882Z,80.87
2019-05-09T22:59:20.149Z,80.68
2019-05-09T23:01:50.392Z,80.71
2019-05-09T23:04:20.321Z,80.92
2019-05-09T23:06:50.246Z,80.69
2019-05-09T23:09:20.172Z,80.38
2019-05-09T23:11:50.442Z,80.32
2019-05-09T23:14:20.659Z,80.22
2019-05-09T23:16:51.015Z,80.34
2019-05-09T23:21:59.854Z,80.05
2019-05-09T23:27:09.471Z,80.17
2019-05-09T23:29:39.699Z,80.75
2019-05-09T23:32:09.640Z,80.84
2019-05-09T23:34:39.560Z,80.57
2019-05-09T23:37:09.489Z,80.78
2019-05-09T23:39:39.701Z,80.50
2019-05-09T23:44:49.323Z,80.24
2019-05-09T23:47:19.532Z,80.34
2019-05-09T23:49:49.449Z,80.74
2019-05-09T23:52:19.393Z,80.47
2019-05-09T23:54:49.338Z,80.31
2019-05-09T23:57:19.259Z,80.61
2019-05-09T23:59:49.180Z,80.22
